sensor_id;sensor_type;location;lat;lon;timestamp;P1;durP1;ratioP1;P2;durP2;ratioP2
68315;SDS011;55508;54.368;18.406;2022-07-01T00:01:30;10.10;;;8.98;;
68315;SDS011;55508;54.368;18.406;2022-07-01T00:03:57;9.20;;;8.50;;
68315;SDS011;55508;54.368;18.406;2022-07-01T00:06:25;9.00;;;8.30;;
68315;SDS011;55508;54.368;18.406;2022-07-01T00:08:52;10.25;;;9.18;;
68315;SDS011;55508;54.368;18.406;2022-07-01T00:11:19;10.77;;;9.70;;
68315;SDS011;55508;54.368;18.406;2022-07-01T00:13:46;10.45;;;9.60;;
68315;SDS011;55508;54.368;18.406;2022-07-01T00:16:13;10.07;;;9.38;;
68315;SDS011;55508;54.368;18.406;2022-07-01T00:18:40;10.15;;;9.45;;
68315;SDS011;55508;54.368;18.406;2022-07-01T00:21:08;10.35;;;9.52;;
68315;SDS011;55508;54.368;18.406;2022-07-01T00:23:43;10.35;;;9.43;;
68315;SDS011;55508;54.368;18.406;2022-07-01T00:26:10;9.90;;;9.15;;
68315;SDS011;55508;54.368;18.406;2022-07-01T00:28:37;10.80;;;9.80;;
68315;SDS011;55508;54.368;18.406;2022-07-01T00:31:04;11.20;;;10.05;;
68315;SDS011;55508;54.368;18.406;2022-07-01T00:33:31;10.52;;;9.82;;
68315;SDS011;55508;54.368;18.406;2022-07-01T00:35:58;10.75;;;9.55;;
68315;SDS011;55508;54.368;18.406;2022-07-01T00:38:25;10.35;;;9.65;;
68315;SDS011;55508;54.368;18.406;2022-07-01T00:40:53;9.18;;;8.55;;
68315;SDS011;55508;54.368;18.406;2022-07-01T00:43:21;10.35;;;9.65;;
68315;SDS011;55508;54.368;18.406;2022-07-01T00:46:11;10.40;;;9.38;;
68315;SDS011;55508;54.368;18.406;2022-07-01T00:48:39;11.98;;;10.70;;
68315;SDS011;55508;54.368;18.406;2022-07-01T00:51:06;11.65;;;10.65;;
68315;SDS011;55508;54.368;18.406;2022-07-01T00:53:34;11.18;;;9.82;;
68315;SDS011;55508;54.368;18.406;2022-07-01T00:56:01;10.40;;;9.43;;
68315;SDS011;55508;54.368;18.406;2022-07-01T00:58:29;13.35;;;10.25;;
68315;SDS011;55508;54.368;18.406;2022-07-01T01:00:57;11.60;;;10.10;;
68315;SDS011;55508;54.368;18.406;2022-07-01T01:03:25;11.93;;;10.70;;
68315;SDS011;55508;54.368;18.406;2022-07-01T01:05:53;11.85;;;10.65;;
68315;SDS011;55508;54.368;18.406;2022-07-01T01:08:24;12.55;;;11.50;;
68315;SDS011;55508;54.368;18.406;2022-07-01T01:10:53;12.77;;;11.77;;
68315;SDS011;55508;54.368;18.406;2022-07-01T01:13:21;12.05;;;10.95;;
68315;SDS011;55508;54.368;18.406;2022-07-01T01:15:48;13.82;;;12.60;;
68315;SDS011;55508;54.368;18.406;2022-07-01T01:18:15;14.73;;;13.07;;
68315;SDS011;55508;54.368;18.406;2022-07-01T01:20:42;16.80;;;13.65;;
68315;SDS011;55508;54.368;18.406;2022-07-01T01:23:09;15.35;;;13.85;;
68315;SDS011;55508;54.368;18.406;2022-07-01T01:25:36;13.88;;;12.70;;
68315;SDS011;55508;54.368;18.406;2022-07-01T01:28:03;16.38;;;13.82;;
68315;SDS011;55508;54.368;18.406;2022-07-01T01:30:30;14.05;;;12.68;;
68315;SDS011;55508;54.368;18.406;2022-07-01T01:32:58;15.02;;;13.52;;
68315;SDS011;55508;54.368;18.406;2022-07-01T01:35:25;14.35;;;13.15;;
68315;SDS011;55508;54.368;18.406;2022-07-01T01:37:52;15.65;;;14.02;;
68315;SDS011;55508;54.368;18.406;2022-07-01T01:40:19;15.55;;;14.07;;
68315;SDS011;55508;54.368;18.406;2022-07-01T01:42:46;16.10;;;14.50;;
68315;SDS011;55508;54.368;18.406;2022-07-01T01:45:13;17.45;;;14.77;;
68315;SDS011;55508;54.368;18.406;2022-07-01T01:47:41;17.08;;;15.45;;
68315;SDS011;55508;54.368;18.406;2022-07-01T01:50:09;18.40;;;15.77;;
68315;SDS011;55508;54.368;18.406;2022-07-01T01:52:38;19.83;;;16.13;;
68315;SDS011;55508;54.368;18.406;2022-07-01T01:55:09;17.83;;;15.93;;
68315;SDS011;55508;54.368;18.406;2022-07-01T01:57:36;17.40;;;15.75;;
68315;SDS011;55508;54.368;18.406;2022-07-01T02:00:04;18.13;;;15.68;;
68315;SDS011;55508;54.368;18.406;2022-07-01T02:02:37;16.60;;;15.07;;
68315;SDS011;55508;54.368;18.406;2022-07-01T02:05:05;17.33;;;14.35;;
68315;SDS011;55508;54.368;18.406;2022-07-01T02:07:34;16.98;;;14.68;;
68315;SDS011;55508;54.368;18.406;2022-07-01T02:10:01;21.08;;;14.73;;
68315;SDS011;55508;54.368;18.406;2022-07-01T02:12:29;14.85;;;13.38;;
68315;SDS011;55508;54.368;18.406;2022-07-01T02:14:56;14.68;;;13.48;;
68315;SDS011;55508;54.368;18.406;2022-07-01T02:17:23;13.85;;;12.85;;
68315;SDS011;55508;54.368;18.406;2022-07-01T02:19:52;14.00;;;12.90;;
68315;SDS011;55508;54.368;18.406;2022-07-01T02:22:19;14.38;;;12.98;;
68315;SDS011;55508;54.368;18.406;2022-07-01T02:24:46;14.65;;;12.77;;
68315;SDS011;55508;54.368;18.406;2022-07-01T02:27:13;14.00;;;12.70;;
68315;SDS011;55508;54.368;18.406;2022-07-01T02:29:40;14.00;;;12.48;;
68315;SDS011;55508;54.368;18.406;2022-07-01T02:32:10;15.52;;;12.95;;
68315;SDS011;55508;54.368;18.406;2022-07-01T02:34:37;14.40;;;13.02;;
68315;SDS011;55508;54.368;18.406;2022-07-01T02:37:05;17.38;;;13.52;;
68315;SDS011;55508;54.368;18.406;2022-07-01T02:39:32;18.60;;;13.75;;
68315;SDS011;55508;54.368;18.406;2022-07-01T02:42:00;17.83;;;12.27;;
68315;SDS011;55508;54.368;18.406;2022-07-01T02:44:45;15.10;;;13.63;;
68315;SDS011;55508;54.368;18.406;2022-07-01T02:47:12;16.17;;;14.68;;
68315;SDS011;55508;54.368;18.406;2022-07-01T02:49:39;15.20;;;13.80;;
68315;SDS011;55508;54.368;18.406;2022-07-01T02:52:06;16.55;;;13.63;;
68315;SDS011;55508;54.368;18.406;2022-07-01T02:54:33;14.48;;;13.13;;
68315;SDS011;55508;54.368;18.406;2022-07-01T02:57:01;13.80;;;12.65;;
68315;SDS011;55508;54.368;18.406;2022-07-01T02:59:28;14.20;;;12.32;;
68315;SDS011;55508;54.368;18.406;2022-07-01T03:01:55;14.02;;;12.77;;
68315;SDS011;55508;54.368;18.406;2022-07-01T03:04:23;19.63;;;13.70;;
68315;SDS011;55508;54.368;18.406;2022-07-01T03:06:50;14.65;;;13.40;;
68315;SDS011;55508;54.368;18.406;2022-07-01T03:09:17;13.38;;;12.27;;
68315;SDS011;55508;54.368;18.406;2022-07-01T03:11:44;13.82;;;12.43;;
68315;SDS011;55508;54.368;18.406;2022-07-01T03:14:11;15.68;;;12.20;;
68315;SDS011;55508;54.368;18.406;2022-07-01T03:16:38;13.10;;;11.40;;
68315;SDS011;55508;54.368;18.406;2022-07-01T03:19:05;14.43;;;11.07;;
68315;SDS011;55508;54.368;18.406;2022-07-01T03:21:32;12.80;;;10.93;;
68315;SDS011;55508;54.368;18.406;2022-07-01T03:23:59;11.40;;;10.07;;
68315;SDS011;55508;54.368;18.406;2022-07-01T03:26:26;10.80;;;9.90;;
68315;SDS011;55508;54.368;18.406;2022-07-01T03:28:53;10.65;;;9.75;;
68315;SDS011;55508;54.368;18.406;2022-07-01T03:31:20;13.27;;;9.88;;
68315;SDS011;55508;54.368;18.406;2022-07-01T03:33:47;10.38;;;9.25;;
68315;SDS011;55508;54.368;18.406;2022-07-01T03:36:14;10.45;;;9.32;;
68315;SDS011;55508;54.368;18.406;2022-07-01T03:38:41;11.45;;;9.25;;
68315;SDS011;55508;54.368;18.406;2022-07-01T03:41:09;11.80;;;9.40;;
68315;SDS011;55508;54.368;18.406;2022-07-01T03:43:36;9.85;;;8.95;;
68315;SDS011;55508;54.368;18.406;2022-07-01T03:46:03;12.90;;;8.98;;
68315;SDS011;55508;54.368;18.406;2022-07-01T03:48:30;10.77;;;9.10;;
68315;SDS011;55508;54.368;18.406;2022-07-01T03:50:57;11.95;;;9.60;;
68315;SDS011;55508;54.368;18.406;2022-07-01T03:53:25;20.27;;;9.63;;
68315;SDS011;55508;54.368;18.406;2022-07-01T03:56:10;10.52;;;9.55;;
68315;SDS011;55508;54.368;18.406;2022-07-01T03:58:37;14.38;;;9.07;;
68315;SDS011;55508;54.368;18.406;2022-07-01T04:01:04;10.50;;;9.40;;
68315;SDS011;55508;54.368;18.406;2022-07-01T04:03:31;10.85;;;8.57;;
68315;SDS011;55508;54.368;18.406;2022-07-01T04:05:58;9.95;;;9.15;;
68315;SDS011;55508;54.368;18.406;2022-07-01T04:08:25;10.15;;;9.35;;
68315;SDS011;55508;54.368;18.406;2022-07-01T04:10:53;15.77;;;9.38;;
68315;SDS011;55508;54.368;18.406;2022-07-01T04:13:21;12.82;;;9.40;;
68315;SDS011;55508;54.368;18.406;2022-07-01T04:15:58;30.17;;;14.63;;
68315;SDS011;55508;54.368;18.406;2022-07-01T04:18:27;43.47;;;20.67;;
68315;SDS011;55508;54.368;18.406;2022-07-01T04:20:55;22.00;;;12.65;;
68315;SDS011;55508;54.368;18.406;2022-07-01T04:23:40;18.35;;;9.23;;
68315;SDS011;55508;54.368;18.406;2022-07-01T04:26:07;15.48;;;8.05;;
68315;SDS011;55508;54.368;18.406;2022-07-01T04:28:54;11.88;;;8.60;;
68315;SDS011;55508;54.368;18.406;2022-07-01T04:31:22;15.18;;;8.57;;
68315;SDS011;55508;54.368;18.406;2022-07-01T04:33:49;15.60;;;8.25;;
68315;SDS011;55508;54.368;18.406;2022-07-01T04:36:16;9.18;;;8.30;;
68315;SDS011;55508;54.368;18.406;2022-07-01T04:38:44;12.10;;;7.40;;
68315;SDS011;55508;54.368;18.406;2022-07-01T04:41:11;10.80;;;8.20;;
68315;SDS011;55508;54.368;18.406;2022-07-01T04:43:57;12.52;;;7.50;;
68315;SDS011;55508;54.368;18.406;2022-07-01T04:46:24;14.65;;;7.95;;
68315;SDS011;55508;54.368;18.406;2022-07-01T04:48:52;8.95;;;7.50;;
68315;SDS011;55508;54.368;18.406;2022-07-01T04:51:20;12.85;;;7.00;;
68315;SDS011;55508;54.368;18.406;2022-07-01T04:53:48;12.93;;;7.30;;
68315;SDS011;55508;54.368;18.406;2022-07-01T04:56:15;15.38;;;6.70;;
68315;SDS011;55508;54.368;18.406;2022-07-01T04:58:42;11.90;;;6.45;;
68315;SDS011;55508;54.368;18.406;2022-07-01T05:01:09;6.65;;;5.97;;
68315;SDS011;55508;54.368;18.406;2022-07-01T05:03:37;7.00;;;6.05;;
68315;SDS011;55508;54.368;18.406;2022-07-01T05:06:05;9.40;;;5.88;;
68315;SDS011;55508;54.368;18.406;2022-07-01T05:08:32;7.68;;;5.90;;
68315;SDS011;55508;54.368;18.406;2022-07-01T05:10:59;9.80;;;5.55;;
68315;SDS011;55508;54.368;18.406;2022-07-01T05:13:26;18.85;;;5.97;;
68315;SDS011;55508;54.368;18.406;2022-07-01T05:15:53;12.85;;;5.60;;
68315;SDS011;55508;54.368;18.406;2022-07-01T05:18:20;8.10;;;4.93;;
68315;SDS011;55508;54.368;18.406;2022-07-01T05:21:06;7.35;;;5.28;;
68315;SDS011;55508;54.368;18.406;2022-07-01T05:23:51;8.27;;;5.18;;
68315;SDS011;55508;54.368;18.406;2022-07-01T05:26:18;6.97;;;5.15;;
68315;SDS011;55508;54.368;18.406;2022-07-01T05:28:46;5.80;;;5.28;;
68315;SDS011;55508;54.368;18.406;2022-07-01T05:31:14;5.68;;;5.18;;
68315;SDS011;55508;54.368;18.406;2022-07-01T05:33:41;7.43;;;5.10;;
68315;SDS011;55508;54.368;18.406;2022-07-01T05:36:09;7.85;;;5.13;;
68315;SDS011;55508;54.368;18.406;2022-07-01T05:38:36;6.65;;;4.93;;
68315;SDS011;55508;54.368;18.406;2022-07-01T05:41:04;9.20;;;5.20;;
68315;SDS011;55508;54.368;18.406;2022-07-01T05:43:31;8.48;;;5.05;;
68315;SDS011;55508;54.368;18.406;2022-07-01T05:45:59;8.43;;;5.10;;
68315;SDS011;55508;54.368;18.406;2022-07-01T05:48:26;5.53;;;4.93;;
68315;SDS011;55508;54.368;18.406;2022-07-01T05:50:53;7.10;;;5.28;;
68315;SDS011;55508;54.368;18.406;2022-07-01T05:53:21;8.13;;;5.47;;
68315;SDS011;55508;54.368;18.406;2022-07-01T05:55:48;6.03;;;5.10;;
68315;SDS011;55508;54.368;18.406;2022-07-01T05:58:15;6.68;;;5.03;;
68315;SDS011;55508;54.368;18.406;2022-07-01T06:00:42;9.18;;;5.28;;
68315;SDS011;55508;54.368;18.406;2022-07-01T06:03:13;5.45;;;5.05;;
68315;SDS011;55508;54.368;18.406;2022-07-01T06:05:41;10.55;;;4.82;;
68315;SDS011;55508;54.368;18.406;2022-07-01T06:08:08;23.63;;;6.20;;
68315;SDS011;55508;54.368;18.406;2022-07-01T06:10:36;5.55;;;4.78;;
68315;SDS011;55508;54.368;18.406;2022-07-01T06:13:03;7.20;;;4.80;;
68315;SDS011;55508;54.368;18.406;2022-07-01T06:15:31;7.70;;;4.88;;
68315;SDS011;55508;54.368;18.406;2022-07-01T06:17:58;9.90;;;4.90;;
68315;SDS011;55508;54.368;18.406;2022-07-01T06:20:25;7.13;;;4.50;;
68315;SDS011;55508;54.368;18.406;2022-07-01T06:22:52;9.52;;;4.95;;
68315;SDS011;55508;54.368;18.406;2022-07-01T06:25:19;6.45;;;4.82;;
68315;SDS011;55508;54.368;18.406;2022-07-01T06:27:46;7.55;;;5.20;;
68315;SDS011;55508;54.368;18.406;2022-07-01T06:30:13;6.88;;;4.63;;
68315;SDS011;55508;54.368;18.406;2022-07-01T06:32:41;8.63;;;4.97;;
68315;SDS011;55508;54.368;18.406;2022-07-01T06:35:08;17.42;;;5.13;;
68315;SDS011;55508;54.368;18.406;2022-07-01T06:37:36;14.75;;;5.07;;
68315;SDS011;55508;54.368;18.406;2022-07-01T06:40:03;6.18;;;4.35;;
68315;SDS011;55508;54.368;18.406;2022-07-01T06:42:32;25.73;;;5.30;;
68315;SDS011;55508;54.368;18.406;2022-07-01T06:44:59;10.55;;;4.72;;
68315;SDS011;55508;54.368;18.406;2022-07-01T06:47:27;104.28;;;11.15;;
68315;SDS011;55508;54.368;18.406;2022-07-01T06:49:54;12.32;;;5.18;;
68315;SDS011;55508;54.368;18.406;2022-07-01T06:52:27;15.60;;;5.50;;
68315;SDS011;55508;54.368;18.406;2022-07-01T06:54:54;12.77;;;6.30;;
68315;SDS011;55508;54.368;18.406;2022-07-01T06:57:21;10.55;;;5.18;;
68315;SDS011;55508;54.368;18.406;2022-07-01T06:59:48;8.05;;;4.68;;
68315;SDS011;55508;54.368;18.406;2022-07-01T07:02:16;5.22;;;4.20;;
68315;SDS011;55508;54.368;18.406;2022-07-01T07:04:43;5.88;;;3.78;;
68315;SDS011;55508;54.368;18.406;2022-07-01T07:07:28;7.22;;;4.00;;
68315;SDS011;55508;54.368;18.406;2022-07-01T07:09:55;10.02;;;4.20;;
68315;SDS011;55508;54.368;18.406;2022-07-01T07:12:25;9.68;;;3.97;;
68315;SDS011;55508;54.368;18.406;2022-07-01T07:14:52;36.38;;;5.07;;
68315;SDS011;55508;54.368;18.406;2022-07-01T07:17:19;5.43;;;3.63;;
68315;SDS011;55508;54.368;18.406;2022-07-01T07:19:47;13.05;;;4.32;;
68315;SDS011;55508;54.368;18.406;2022-07-01T07:22:14;9.45;;;4.20;;
68315;SDS011;55508;54.368;18.406;2022-07-01T07:24:41;7.97;;;3.92;;
68315;SDS011;55508;54.368;18.406;2022-07-01T07:27:08;8.50;;;3.90;;
68315;SDS011;55508;54.368;18.406;2022-07-01T07:29:35;11.23;;;4.57;;
68315;SDS011;55508;54.368;18.406;2022-07-01T07:32:03;5.53;;;3.75;;
68315;SDS011;55508;54.368;18.406;2022-07-01T07:34:30;6.68;;;4.40;;
68315;SDS011;55508;54.368;18.406;2022-07-01T07:36:57;5.10;;;3.60;;
68315;SDS011;55508;54.368;18.406;2022-07-01T07:39:24;6.80;;;3.80;;
68315;SDS011;55508;54.368;18.406;2022-07-01T07:41:58;7.03;;;3.17;;
68315;SDS011;55508;54.368;18.406;2022-07-01T07:44:25;5.70;;;3.60;;
68315;SDS011;55508;54.368;18.406;2022-07-01T07:46:52;5.60;;;3.38;;
68315;SDS011;55508;54.368;18.406;2022-07-01T07:49:19;7.72;;;3.75;;
68315;SDS011;55508;54.368;18.406;2022-07-01T07:51:46;4.38;;;3.55;;
68315;SDS011;55508;54.368;18.406;2022-07-01T07:54:14;5.80;;;2.90;;
68315;SDS011;55508;54.368;18.406;2022-07-01T07:56:41;8.35;;;3.50;;
68315;SDS011;55508;54.368;18.406;2022-07-01T07:59:11;4.25;;;3.10;;
68315;SDS011;55508;54.368;18.406;2022-07-01T08:01:38;6.07;;;3.00;;
68315;SDS011;55508;54.368;18.406;2022-07-01T08:04:06;9.90;;;3.30;;
68315;SDS011;55508;54.368;18.406;2022-07-01T08:06:33;3.92;;;3.15;;
68315;SDS011;55508;54.368;18.406;2022-07-01T08:09:00;3.55;;;2.83;;
68315;SDS011;55508;54.368;18.406;2022-07-01T08:11:27;5.55;;;3.20;;
68315;SDS011;55508;54.368;18.406;2022-07-01T08:13:54;3.67;;;3.13;;
68315;SDS011;55508;54.368;18.406;2022-07-01T08:16:21;11.93;;;3.03;;
68315;SDS011;55508;54.368;18.406;2022-07-01T08:18:49;4.90;;;3.20;;
68315;SDS011;55508;54.368;18.406;2022-07-01T08:21:16;11.30;;;3.03;;
68315;SDS011;55508;54.368;18.406;2022-07-01T08:23:43;6.43;;;3.40;;
68315;SDS011;55508;54.368;18.406;2022-07-01T08:26:10;6.18;;;2.47;;
68315;SDS011;55508;54.368;18.406;2022-07-01T08:28:40;7.03;;;2.70;;
68315;SDS011;55508;54.368;18.406;2022-07-01T08:31:08;4.70;;;2.60;;
68315;SDS011;55508;54.368;18.406;2022-07-01T08:33:35;4.72;;;2.85;;
68315;SDS011;55508;54.368;18.406;2022-07-01T08:36:05;8.13;;;3.30;;
68315;SDS011;55508;54.368;18.406;2022-07-01T08:38:33;6.10;;;3.25;;
68315;SDS011;55508;54.368;18.406;2022-07-01T08:41:01;5.55;;;2.75;;
68315;SDS011;55508;54.368;18.406;2022-07-01T08:43:30;11.00;;;3.58;;
68315;SDS011;55508;54.368;18.406;2022-07-01T08:45:58;8.10;;;3.67;;
68315;SDS011;55508;54.368;18.406;2022-07-01T08:48:28;3.95;;;3.20;;
68315;SDS011;55508;54.368;18.406;2022-07-01T08:50:56;8.13;;;3.55;;
68315;SDS011;55508;54.368;18.406;2022-07-01T08:53:23;4.50;;;3.38;;
68315;SDS011;55508;54.368;18.406;2022-07-01T08:55:50;8.35;;;3.83;;
68315;SDS011;55508;54.368;18.406;2022-07-01T08:58:36;6.18;;;3.22;;
68315;SDS011;55508;54.368;18.406;2022-07-01T09:03:43;11.43;;;4.00;;
68315;SDS011;55508;54.368;18.406;2022-07-01T09:08:43;6.15;;;3.90;;
68315;SDS011;55508;54.368;18.406;2022-07-01T09:11:15;5.28;;;3.45;;
68315;SDS011;55508;54.368;18.406;2022-07-01T09:13:45;7.55;;;3.90;;
68315;SDS011;55508;54.368;18.406;2022-07-01T09:16:13;8.23;;;3.95;;
68315;SDS011;55508;54.368;18.406;2022-07-01T09:21:30;7.90;;;4.35;;
68315;SDS011;55508;54.368;18.406;2022-07-01T09:24:02;6.53;;;3.60;;
68315;SDS011;55508;54.368;18.406;2022-07-01T09:26:32;6.88;;;3.90;;
68315;SDS011;55508;54.368;18.406;2022-07-01T09:29:00;7.78;;;4.38;;
68315;SDS011;55508;54.368;18.406;2022-07-01T09:31:33;73.90;;;7.47;;
68315;SDS011;55508;54.368;18.406;2022-07-01T09:34:04;9.52;;;4.78;;
68315;SDS011;55508;54.368;18.406;2022-07-01T09:36:32;6.82;;;4.95;;
68315;SDS011;55508;54.368;18.406;2022-07-01T09:39:03;7.18;;;4.93;;
68315;SDS011;55508;54.368;18.406;2022-07-01T09:41:53;10.38;;;5.18;;
68315;SDS011;55508;54.368;18.406;2022-07-01T09:44:21;9.48;;;6.05;;
68315;SDS011;55508;54.368;18.406;2022-07-01T09:46:55;6.55;;;5.90;;
68315;SDS011;55508;54.368;18.406;2022-07-01T09:49:23;10.02;;;5.68;;
68315;SDS011;55508;54.368;18.406;2022-07-01T09:51:51;5.85;;;5.35;;
68315;SDS011;55508;54.368;18.406;2022-07-01T09:54:18;13.45;;;5.95;;
68315;SDS011;55508;54.368;18.406;2022-07-01T09:56:46;6.85;;;6.30;;
68315;SDS011;55508;54.368;18.406;2022-07-01T09:59:16;6.90;;;5.72;;
68315;SDS011;55508;54.368;18.406;2022-07-01T10:01:43;10.27;;;6.28;;
68315;SDS011;55508;54.368;18.406;2022-07-01T10:04:12;8.23;;;6.32;;
68315;SDS011;55508;54.368;18.406;2022-07-01T10:12:41;14.05;;;6.03;;
68315;SDS011;55508;54.368;18.406;2022-07-01T10:15:10;10.45;;;5.88;;
68315;SDS011;55508;54.368;18.406;2022-07-01T10:17:42;12.02;;;5.55;;
68315;SDS011;55508;54.368;18.406;2022-07-01T10:22:46;39.30;;;7.93;;
68315;SDS011;55508;54.368;18.406;2022-07-01T10:36:18;12.48;;;7.60;;
68315;SDS011;55508;54.368;18.406;2022-07-01T10:44:39;8.60;;;7.70;;
68315;SDS011;55508;54.368;18.406;2022-07-01T10:47:07;11.00;;;7.15;;
68315;SDS011;55508;54.368;18.406;2022-07-01T10:57:20;11.10;;;6.97;;
68315;SDS011;55508;54.368;18.406;2022-07-01T10:59:52;9.32;;;7.65;;
68315;SDS011;55508;54.368;18.406;2022-07-01T11:04:55;8.50;;;7.70;;
68315;SDS011;55508;54.368;18.406;2022-07-01T11:07:28;14.98;;;8.60;;
68315;SDS011;55508;54.368;18.406;2022-07-01T11:09:59;10.57;;;8.27;;
68315;SDS011;55508;54.368;18.406;2022-07-01T11:12:28;15.85;;;9.20;;
68315;SDS011;55508;54.368;18.406;2022-07-01T11:14:56;11.98;;;10.60;;
68315;SDS011;55508;54.368;18.406;2022-07-01T11:17:28;21.88;;;10.70;;
68315;SDS011;55508;54.368;18.406;2022-07-01T11:19:56;13.05;;;9.25;;
68315;SDS011;55508;54.368;18.406;2022-07-01T11:22:34;13.30;;;9.82;;
68315;SDS011;55508;54.368;18.406;2022-07-01T11:25:02;9.40;;;8.68;;
68315;SDS011;55508;54.368;18.406;2022-07-01T11:27:34;11.70;;;8.93;;
68315;SDS011;55508;54.368;18.406;2022-07-01T11:30:03;10.05;;;9.18;;
68315;SDS011;55508;54.368;18.406;2022-07-01T11:32:36;9.82;;;8.40;;
68315;SDS011;55508;54.368;18.406;2022-07-01T11:35:05;10.02;;;8.50;;
68315;SDS011;55508;54.368;18.406;2022-07-01T11:40:54;8.38;;;6.53;;
68315;SDS011;55508;54.368;18.406;2022-07-01T11:43:22;8.10;;;6.20;;
68315;SDS011;55508;54.368;18.406;2022-07-01T11:45:52;9.15;;;5.82;;
68315;SDS011;55508;54.368;18.406;2022-07-01T11:51:08;8.98;;;6.10;;
68315;SDS011;55508;54.368;18.406;2022-07-01T11:53:37;8.37;;;5.83;;
68315;SDS011;55508;54.368;18.406;2022-07-01T11:56:05;6.35;;;5.10;;
68315;SDS011;55508;54.368;18.406;2022-07-01T12:01:28;7.85;;;4.68;;
68315;SDS011;55508;54.368;18.406;2022-07-01T12:03:58;10.35;;;4.97;;
68315;SDS011;55508;54.368;18.406;2022-07-01T12:06:27;5.35;;;4.85;;
68315;SDS011;55508;54.368;18.406;2022-07-01T12:08:54;7.63;;;4.88;;
68315;SDS011;55508;54.368;18.406;2022-07-01T12:11:24;35.75;;;7.47;;
68315;SDS011;55508;54.368;18.406;2022-07-01T12:13:52;5.40;;;4.90;;
68315;SDS011;55508;54.368;18.406;2022-07-01T12:16:20;16.00;;;5.30;;
68315;SDS011;55508;54.368;18.406;2022-07-01T12:19:00;9.90;;;5.30;;
68315;SDS011;55508;54.368;18.406;2022-07-01T12:21:29;9.05;;;5.57;;
68315;SDS011;55508;54.368;18.406;2022-07-01T12:24:07;7.72;;;6.05;;
68315;SDS011;55508;54.368;18.406;2022-07-01T12:26:45;8.07;;;7.30;;
68315;SDS011;55508;54.368;18.406;2022-07-01T12:29:18;7.93;;;6.60;;
68315;SDS011;55508;54.368;18.406;2022-07-01T12:34:50;8.10;;;6.85;;
68315;SDS011;55508;54.368;18.406;2022-07-01T12:39:54;93.25;;;11.07;;
68315;SDS011;55508;54.368;18.406;2022-07-01T12:42:34;26.77;;;7.03;;
68315;SDS011;55508;54.368;18.406;2022-07-01T12:45:09;10.63;;;6.32;;
68315;SDS011;55508;54.368;18.406;2022-07-01T12:47:39;6.30;;;5.70;;
68315;SDS011;55508;54.368;18.406;2022-07-01T12:53:03;6.88;;;5.43;;
68315;SDS011;55508;54.368;18.406;2022-07-01T12:55:53;6.43;;;5.57;;
68315;SDS011;55508;54.368;18.406;2022-07-01T12:58:23;6.43;;;5.80;;
68315;SDS011;55508;54.368;18.406;2022-07-01T13:00:55;7.20;;;5.50;;
68315;SDS011;55508;54.368;18.406;2022-07-01T13:03:25;6.22;;;5.70;;
68315;SDS011;55508;54.368;18.406;2022-07-01T13:05:54;7.88;;;4.90;;
68315;SDS011;55508;54.368;18.406;2022-07-01T13:08:22;16.00;;;6.93;;
68315;SDS011;55508;54.368;18.406;2022-07-01T13:10:50;15.57;;;5.93;;
68315;SDS011;55508;54.368;18.406;2022-07-01T13:13:18;10.38;;;6.25;;
68315;SDS011;55508;54.368;18.406;2022-07-01T13:15:45;10.35;;;6.43;;
68315;SDS011;55508;54.368;18.406;2022-07-01T13:18:12;9.85;;;5.68;;
68315;SDS011;55508;54.368;18.406;2022-07-01T13:20:43;16.33;;;6.40;;
68315;SDS011;55508;54.368;18.406;2022-07-01T13:23:11;7.38;;;6.40;;
68315;SDS011;55508;54.368;18.406;2022-07-01T13:25:38;8.88;;;6.38;;
68315;SDS011;55508;54.368;18.406;2022-07-01T13:28:06;12.27;;;6.50;;
68315;SDS011;55508;54.368;18.406;2022-07-01T13:30:33;13.85;;;6.75;;
68315;SDS011;55508;54.368;18.406;2022-07-01T13:33:02;7.03;;;6.32;;
68315;SDS011;55508;54.368;18.406;2022-07-01T13:35:29;9.65;;;6.10;;
68315;SDS011;55508;54.368;18.406;2022-07-01T13:37:56;8.45;;;5.75;;
68315;SDS011;55508;54.368;18.406;2022-07-01T13:40:23;6.47;;;5.53;;
68315;SDS011;55508;54.368;18.406;2022-07-01T13:42:51;7.85;;;5.30;;
68315;SDS011;55508;54.368;18.406;2022-07-01T13:45:18;7.03;;;4.82;;
68315;SDS011;55508;54.368;18.406;2022-07-01T13:47:45;17.50;;;5.40;;
68315;SDS011;55508;54.368;18.406;2022-07-01T13:50:12;5.80;;;5.10;;
68315;SDS011;55508;54.368;18.406;2022-07-01T13:52:39;20.77;;;5.70;;
68315;SDS011;55508;54.368;18.406;2022-07-01T13:55:12;14.75;;;4.53;;
68315;SDS011;55508;54.368;18.406;2022-07-01T13:57:40;12.23;;;4.70;;
68315;SDS011;55508;54.368;18.406;2022-07-01T14:00:07;13.98;;;4.10;;
68315;SDS011;55508;54.368;18.406;2022-07-01T14:02:35;9.07;;;3.95;;
68315;SDS011;55508;54.368;18.406;2022-07-01T14:05:02;4.25;;;3.53;;
68315;SDS011;55508;54.368;18.406;2022-07-01T14:07:30;602.85;;;43.90;;
68315;SDS011;55508;54.368;18.406;2022-07-01T14:09:57;11.55;;;3.70;;
68315;SDS011;55508;54.368;18.406;2022-07-01T14:12:24;6.85;;;3.00;;
68315;SDS011;55508;54.368;18.406;2022-07-01T14:14:54;10.25;;;3.60;;
68315;SDS011;55508;54.368;18.406;2022-07-01T14:17:22;88.20;;;7.95;;
68315;SDS011;55508;54.368;18.406;2022-07-01T14:19:49;11.40;;;3.53;;
68315;SDS011;55508;54.368;18.406;2022-07-01T14:22:16;5.63;;;3.22;;
68315;SDS011;55508;54.368;18.406;2022-07-01T14:24:43;10.50;;;3.20;;
68315;SDS011;55508;54.368;18.406;2022-07-01T14:27:10;6.72;;;3.03;;
68315;SDS011;55508;54.368;18.406;2022-07-01T14:29:37;84.47;;;8.10;;
68315;SDS011;55508;54.368;18.406;2022-07-01T14:32:05;5.97;;;3.65;;
68315;SDS011;55508;54.368;18.406;2022-07-01T14:34:32;12.57;;;3.47;;
68315;SDS011;55508;54.368;18.406;2022-07-01T14:36:59;4.60;;;3.90;;
68315;SDS011;55508;54.368;18.406;2022-07-01T14:39:26;6.65;;;2.97;;
68315;SDS011;55508;54.368;18.406;2022-07-01T14:41:53;5.03;;;2.63;;
68315;SDS011;55508;54.368;18.406;2022-07-01T14:44:22;5.63;;;3.15;;
68315;SDS011;55508;54.368;18.406;2022-07-01T14:46:50;3.15;;;2.72;;
68315;SDS011;55508;54.368;18.406;2022-07-01T14:49:18;3.95;;;2.95;;
68315;SDS011;55508;54.368;18.406;2022-07-01T14:51:45;4.30;;;2.70;;
68315;SDS011;55508;54.368;18.406;2022-07-01T14:54:12;4.05;;;2.30;;
68315;SDS011;55508;54.368;18.406;2022-07-01T14:56:39;5.35;;;2.50;;
68315;SDS011;55508;54.368;18.406;2022-07-01T14:59:07;4.55;;;2.17;;
68315;SDS011;55508;54.368;18.406;2022-07-01T15:01:36;6.13;;;2.05;;
68315;SDS011;55508;54.368;18.406;2022-07-01T15:04:04;3.17;;;2.28;;
68315;SDS011;55508;54.368;18.406;2022-07-01T15:06:31;21.85;;;3.20;;
68315;SDS011;55508;54.368;18.406;2022-07-01T15:08:58;5.40;;;2.90;;
68315;SDS011;55508;54.368;18.406;2022-07-01T15:11:25;11.82;;;3.20;;
68315;SDS011;55508;54.368;18.406;2022-07-01T15:13:52;8.95;;;2.90;;
68315;SDS011;55508;54.368;18.406;2022-07-01T15:16:19;5.88;;;3.10;;
68315;SDS011;55508;54.368;18.406;2022-07-01T15:18:47;4.45;;;2.58;;
68315;SDS011;55508;54.368;18.406;2022-07-01T15:21:14;8.55;;;3.25;;
68315;SDS011;55508;54.368;18.406;2022-07-01T15:23:41;8.43;;;3.88;;
68315;SDS011;55508;54.368;18.406;2022-07-01T15:26:09;7.47;;;4.38;;
68315;SDS011;55508;54.368;18.406;2022-07-01T15:28:36;7.55;;;4.47;;
68315;SDS011;55508;54.368;18.406;2022-07-01T15:31:03;5.15;;;4.65;;
68315;SDS011;55508;54.368;18.406;2022-07-01T15:33:30;8.90;;;5.03;;
68315;SDS011;55508;54.368;18.406;2022-07-01T15:35:57;14.23;;;5.70;;